createdAt,value
2023-03-20T00:03:44.901Z,100677.38
2023-03-20T00:08:47.673Z,100685.03
2023-03-20T00:13:49.909Z,100696.03
2023-03-20T00:18:51.342Z,100695.16
2023-03-20T00:23:54.489Z,100698.59
2023-03-20T00:28:56.384Z,100705.56
2023-03-20T00:34:03.596Z,100709.19
2023-03-20T00:39:05.909Z,100710.03
2023-03-20T00:44:22.001Z,100712.44
2023-03-20T00:49:28.043Z,100713.22
2023-03-20T00:54:30.191Z,100716.59
2023-03-20T00:59:35.925Z,100719.22
2023-03-20T01:04:42.177Z,100721.00
2023-03-20T01:09:43.660Z,100724.22
2023-03-20T01:14:51.323Z,100720.66
2023-03-20T01:19:53.221Z,100725.47
2023-03-20T01:24:54.688Z,100726.06
2023-03-20T01:29:56.384Z,100721.69
2023-03-20T01:34:58.202Z,100727.34
2023-03-20T01:39:59.666Z,100733.84
2023-03-20T01:45:01.083Z,100745.50
2023-03-20T01:50:26.197Z,100745.28
2023-03-20T01:55:28.896Z,100746.81
2023-03-20T02:00:30.587Z,100751.78
2023-03-20T02:05:33.103Z,100748.25
2023-03-20T02:10:35.163Z,100757.50
2023-03-20T02:16:09.922Z,100758.31
2023-03-20T02:21:44.394Z,100759.06
2023-03-20T02:26:55.270Z,100753.97
2023-03-20T02:32:18.610Z,100758.28
2023-03-20T02:37:43.499Z,100758.25
2023-03-20T02:42:49.759Z,100759.03
2023-03-20T02:48:16.419Z,100769.19
2023-03-20T02:53:42.958Z,100765.94
2023-03-20T02:58:53.550Z,100766.75
2023-03-20T03:03:57.164Z,100771.00
2023-03-20T03:09:04.656Z,100767.69
2023-03-20T03:14:07.554Z,100766.03
2023-03-20T03:19:15.403Z,100768.69
2023-03-20T03:24:41.577Z,100781.34
2023-03-20T03:29:46.076Z,100788.94
2023-03-20T03:34:47.767Z,100784.75
2023-03-20T03:39:54.934Z,100788.38
2023-03-20T03:45:17.387Z,100781.72
2023-03-20T03:50:29.071Z,100777.66
2023-03-20T03:55:39.712Z,100769.28
2023-03-20T04:00:43.777Z,100766.09
2023-03-20T04:05:47.024Z,100762.00
2023-03-20T04:10:48.565Z,100772.19
2023-03-20T04:15:50.019Z,100776.44
2023-03-20T04:20:52.413Z,100787.38
2023-03-20T04:25:54.034Z,100791.63
2023-03-20T04:30:57.788Z,100806.81
2023-03-20T04:35:59.234Z,100805.13
2023-03-20T04:41:00.870Z,100818.59
2023-03-20T04:46:02.404Z,100820.31
2023-03-20T04:51:03.993Z,100803.38
2023-03-20T04:56:05.859Z,100803.44
2023-03-20T05:01:07.615Z,100805.19
2023-03-20T05:06:09.597Z,100800.25
2023-03-20T05:11:10.994Z,100807.06
2023-03-20T05:16:12.621Z,100801.94
2023-03-20T05:21:14.481Z,100813.03
2023-03-20T05:26:16.242Z,100804.63
2023-03-20T05:31:18.874Z,100801.31
2023-03-20T05:36:20.722Z,100803.84
2023-03-20T05:41:22.212Z,100813.97
2023-03-20T05:46:23.951Z,100823.16
2023-03-20T05:51:25.689Z,100824.66
2023-03-20T05:56:27.523Z,100828.78
2023-03-20T06:01:29.014Z,100814.06
2023-03-20T06:06:30.436Z,100809.31
2023-03-20T06:11:33.274Z,100811.03
2023-03-20T06:16:36.093Z,100821.66
2023-03-20T06:21:37.952Z,100822.72
2023-03-20T06:26:39.947Z,100814.13
2023-03-20T06:31:41.557Z,100832.59
2023-03-20T06:36:45.297Z,100850.50
2023-03-20T06:41:47.139Z,100859.00
2023-03-20T06:46:48.629Z,100862.13
2023-03-20T06:51:50.444Z,100870.34
2023-03-20T06:56:52.155Z,100872.50
2023-03-20T07:01:54.198Z,100879.06
2023-03-20T07:06:56.327Z,100877.91
2023-03-20T07:11:59.581Z,100880.28
2023-03-20T07:17:01.590Z,100880.78
2023-03-20T07:22:09.208Z,100883.63
2023-03-20T07:27:11.648Z,100889.97
2023-03-20T07:32:13.848Z,100878.13
2023-03-20T07:37:16.115Z,100875.03
2023-03-20T07:42:18.485Z,100871.81
2023-03-20T07:47:20.053Z,100869.59
2023-03-20T07:52:21.530Z,100872.78
2023-03-20T07:57:23.387Z,100866.13
2023-03-20T08:02:24.890Z,100863.69
2023-03-20T08:07:26.738Z,100851.94
2023-03-20T08:12:28.233Z,100859.06
2023-03-20T08:17:29.838Z,100859.75
2023-03-20T08:22:31.636Z,100862.75
2023-03-20T08:27:35.801Z,100865.09
2023-03-20T08:32:37.902Z,100877.50
2023-03-20T08:37:39.519Z,100884.50
2023-03-20T08:42:41.302Z,100893.06
2023-03-20T08:47:43.325Z,100881.63
2023-03-20T08:52:46.916Z,100883.53
2023-03-20T08:57:48.930Z,100897.44
2023-03-20T09:02:51.838Z,100899.97
2023-03-20T09:07:53.487Z,100893.75
2023-03-20T09:12:55.009Z,100894.09
2023-03-20T09:17:56.640Z,100910.16
2023-03-20T09:22:58.074Z,100893.09
2023-03-20T09:27:59.558Z,100905.38
2023-03-20T09:33:01.306Z,100923.56
2023-03-20T09:38:03.037Z,100923.31
2023-03-20T09:43:22.193Z,100920.91
2023-03-20T09:48:38.937Z,100928.97
2023-03-20T09:54:01.817Z,100932.34
2023-03-20T09:59:06.532Z,100934.59
2023-03-20T10:04:10.231Z,100921.47
2023-03-20T10:09:27.284Z,100925.13
2023-03-20T10:14:31.702Z,100925.09
2023-03-20T10:20:04.348Z,100917.00
2023-03-20T10:25:28.705Z,100903.53
2023-03-20T10:30:42.164Z,100912.41
2023-03-20T10:35:58.562Z,100901.00
2023-03-20T10:41:00.949Z,100905.25
2023-03-20T10:46:13.398Z,100903.16
2023-03-20T10:51:19.358Z,100900.50
2023-03-20T10:56:32.409Z,100899.06
2023-03-20T11:01:35.825Z,100892.38
2023-03-20T11:06:57.933Z,100883.16
2023-03-20T11:12:14.226Z,100886.13
2023-03-20T11:17:16.971Z,100889.09
2023-03-20T11:22:21.392Z,100879.69
2023-03-20T11:27:28.476Z,100875.44
2023-03-20T11:32:47.582Z,100877.81
2023-03-20T11:37:52.415Z,100865.44
2023-03-20T11:42:57.824Z,100871.47
2023-03-20T11:48:02.777Z,100858.50
2023-03-20T11:53:30.256Z,100861.25
2023-03-20T11:58:32.622Z,100861.72
2023-03-20T12:03:55.785Z,100848.19
2023-03-20T12:09:02.401Z,100855.31
2023-03-20T12:14:12.516Z,100854.63
2023-03-20T12:19:20.583Z,100845.91
2023-03-20T12:25:10.310Z,100837.72
2023-03-20T12:30:27.037Z,100844.22
2023-03-20T12:35:33.446Z,100826.84
2023-03-20T12:40:44.964Z,100824.28
2023-03-20T12:45:58.970Z,100810.66
2023-03-20T12:51:13.572Z,100807.72
2023-03-20T12:57:00.146Z,100806.63
2023-03-20T13:02:07.199Z,100796.06
2023-03-20T13:07:41.115Z,100794.19
2023-03-20T13:13:03.006Z,100795.97
2023-03-20T13:18:45.768Z,100786.59
2023-03-20T13:23:59.084Z,100774.88
2023-03-20T13:29:25.757Z,100769.63
2023-03-20T13:34:57.755Z,100773.22
2023-03-20T13:40:38.618Z,100769.81
2023-03-20T13:45:42.874Z,100779.13
2023-03-20T13:51:23.286Z,100771.69
2023-03-20T13:57:16.062Z,100764.81
2023-03-20T14:02:31.066Z,100753.44
2023-03-20T14:07:38.178Z,100752.72
2023-03-20T14:12:44.286Z,100747.22
2023-03-20T14:17:48.978Z,100741.06
2023-03-20T14:22:53.650Z,100732.75
2023-03-20T14:28:21.766Z,100738.78
2023-03-20T14:33:30.590Z,100741.97
2023-03-20T14:38:37.614Z,100739.50
2023-03-20T14:43:58.854Z,100733.47
2023-03-20T14:49:21.499Z,100736.09
2023-03-20T14:54:34.303Z,100735.59
2023-03-20T14:59:37.304Z,100729.53
2023-03-20T15:04:45.498Z,100724.03
2023-03-20T15:09:51.030Z,100732.81
2023-03-20T15:15:01.112Z,100731.16
2023-03-20T15:20:21.781Z,100733.88
2023-03-20T15:25:31.135Z,100732.09
2023-03-20T15:30:41.831Z,100736.69
2023-03-20T15:35:43.777Z,100735.16
2023-03-20T15:40:51.374Z,100736.38
2023-03-20T15:46:16.379Z,100735.34
2023-03-20T15:51:26.063Z,100742.50
2023-03-20T15:56:29.487Z,100723.56
2023-03-20T16:01:34.278Z,100715.91
2023-03-20T16:06:48.025Z,100727.56
2023-03-20T16:11:58.137Z,100713.34
2023-03-20T16:17:02.779Z,100709.69
2023-03-20T16:22:21.496Z,100705.22
2023-03-20T16:27:46.031Z,100701.34
2023-03-20T16:32:53.863Z,100708.47
2023-03-20T16:37:59.131Z,100703.78
2023-03-20T16:43:12.598Z,100707.81
2023-03-20T16:48:24.114Z,100702.44
2023-03-20T16:53:29.881Z,100705.75
2023-03-20T16:58:33.653Z,100713.84
2023-03-20T17:03:48.700Z,100720.13
2023-03-20T17:08:54.341Z,100709.41
2023-03-20T17:13:57.521Z,100708.97
2023-03-20T17:19:14.734Z,100721.41
2023-03-20T17:24:18.352Z,100726.31
2023-03-20T17:29:24.318Z,100731.03
2023-03-20T17:34:26.283Z,100721.75
2023-03-20T17:39:28.181Z,100734.78
2023-03-20T17:44:30.079Z,100739.94
2023-03-20T17:49:32.409Z,100743.56
2023-03-20T17:54:33.939Z,100740.47
2023-03-20T17:59:35.488Z,100746.66
2023-03-20T18:04:37.144Z,100755.25
2023-03-20T18:09:41.345Z,100750.28
2023-03-20T18:14:44.320Z,100750.28
2023-03-20T18:19:45.967Z,100749.38
2023-03-20T18:24:47.910Z,100751.03
2023-03-20T18:29:49.569Z,100754.59
2023-03-20T18:34:51.168Z,100746.19
2023-03-20T18:39:52.593Z,100745.56
2023-03-20T18:44:54.028Z,100747.00
2023-03-20T18:49:55.505Z,100739.69
2023-03-20T18:54:56.908Z,100743.25
2023-03-20T18:59:58.318Z,100745.16
2023-03-20T19:04:59.733Z,100750.72
2023-03-20T19:10:01.139Z,100747.66
2023-03-20T19:15:02.617Z,100746.75
2023-03-20T19:20:04.373Z,100746.78
2023-03-20T19:25:06.188Z,100746.84
2023-03-20T19:30:33.103Z,100744.31
2023-03-20T19:40:57.974Z,100737.72
2023-03-20T19:45:59.650Z,100742.31
2023-03-20T19:51:01.540Z,100738.03
2023-03-20T19:56:03.000Z,100746.16
2023-03-20T20:01:13.973Z,100738.38
2023-03-20T20:06:16.753Z,100739.09
2023-03-20T20:11:20.608Z,100754.16
2023-03-20T20:16:22.253Z,100740.38
2023-03-20T20:27:13.047Z,100739.47
2023-03-20T20:32:19.793Z,100743.56
2023-03-20T20:38:13.948Z,100733.44
2023-03-20T20:42:47.495Z,100740.59
2023-03-20T20:47:49.847Z,100728.16
2023-03-20T20:52:51.604Z,100724.19
2023-03-20T20:57:57.707Z,100727.03
2023-03-20T21:02:59.842Z,100727.19
2023-03-20T21:08:01.274Z,100732.47
2023-03-20T21:13:03.011Z,100743.56
2023-03-20T21:18:05.076Z,100733.50
2023-03-20T21:23:06.538Z,100722.63
2023-03-20T21:28:09.268Z,100737.94
2023-03-20T21:33:10.844Z,100733.91
2023-03-20T21:38:55.353Z,100738.25
2023-03-20T21:43:34.865Z,100742.41
2023-03-20T21:49:19.063Z,100739.84
2023-03-20T21:54:47.588Z,100735.75
2023-03-20T21:59:57.901Z,100725.00
2023-03-20T22:05:24.745Z,100734.03
2023-03-20T22:16:10.746Z,100745.94
2023-03-20T22:42:49.705Z,100731.00
2023-03-20T22:47:42.172Z,100733.50
2023-03-20T22:52:49.258Z,100729.53
2023-03-20T22:58:05.958Z,100727.84
2023-03-20T23:08:33.530Z,100718.56
2023-03-20T23:13:37.520Z,100709.78
2023-03-20T23:18:39.131Z,100715.88
2023-03-20T23:23:40.759Z,100713.44
2023-03-20T23:28:45.145Z,100709.16
2023-03-20T23:33:52.088Z,100706.66
2023-03-20T23:38:53.684Z,100708.28
2023-03-20T23:43:55.174Z,100705.66
2023-03-20T23:48:56.614Z,100696.25
2023-03-20T23:53:58.081Z,100700.59
2023-03-20T23:59:08.335Z,100693.06
